Time;durP1;ratioP1;P1;durP2;ratioP2;P2;SDS_P1;SDS_P2;PMS_P1;PMS_P2;Temp;Humidity;BMP_temperature;BMP_pressure;BME280_temperature;BME280_humidity;BME280_pressure;Samples;Min_cycle;Max_cycle;Signal;HPM_P1;HPM_P2
2023/03/25 00:02:28;;;;;;;4.78;0.85;;;11.40;99.90;;;;;;5012547;28;20058;-79
2023/03/25 00:04:55;;;;;;;;;;;11.40;99.90;;;;;;5020850;28;20057;-81
2023/03/25 00:07:23;;;;;;;6.13;1.42;;;11.40;99.90;;;;;;5011257;28;19922;-80
2023/03/25 00:09:49;;;;;;;5.35;1.08;;;11.40;99.90;;;;;;5009617;28;20047;-79
2023/03/25 00:12:16;;;;;;;5.38;1.08;;;11.40;99.90;;;;;;5018859;28;20058;-79
2023/03/25 00:14:53;;;;;;;3.65;1.17;;;11.40;99.90;;;;;;5021081;28;20037;-79
2023/03/25 00:17:22;;;;;;;4.47;1.67;;;11.40;99.90;;;;;;5021681;28;20050;-79
2023/03/25 00:19:49;;;;;;;7.25;1.40;;;11.40;99.90;;;;;;5016847;28;20406;-80
2023/03/25 00:22:17;;;;;;;4.88;1.10;;;11.40;99.90;;;;;;5019577;28;20069;-79
2023/03/25 00:24:44;;;;;;;3.30;1.10;;;11.40;99.90;;;;;;5017810;28;20171;-80
2023/03/25 00:27:13;;;;;;;7.60;1.63;;;11.40;99.90;;;;;;5023656;28;20105;-79
2023/03/25 00:29:43;;;;;;;9.77;1.50;;;11.40;99.90;;;;;;5011486;28;20104;-79
2023/03/25 00:32:11;;;;;;;2.97;1.23;;;11.40;99.90;;;;;;5005947;28;20416;-79
2023/03/25 00:34:46;;;;;;;10.38;2.80;;;11.30;99.90;;;;;;5017177;28;20053;-79
2023/03/25 00:37:20;;;;;;;9.07;1.70;;;11.20;99.90;;;;;;5012140;28;20402;-79
2023/03/25 00:39:47;;;;;;;6.53;1.55;;;11.20;99.90;;;;;;5009524;28;20085;-79
2023/03/25 00:42:15;;;;;;;8.48;1.75;;;11.20;99.90;;;;;;5015373;28;20057;-79
2023/03/25 00:44:42;;;;;;;4.32;1.08;;;11.20;99.90;;;;;;5010257;28;20050;-79
2023/03/25 00:47:11;;;;;;;4.20;1.27;;;11.20;99.90;;;;;;5008863;28;20109;-79
2023/03/25 00:49:37;;;;;;;4.63;1.30;;;11.10;99.90;;;;;;5010315;28;20046;-79
2023/03/25 00:52:04;;;;;;;7.00;1.40;;;11.10;99.90;;;;;;5009156;28;20106;-80
2023/03/25 00:54:33;;;;;;;2.85;0.98;;;11.00;99.90;;;;;;5008434;28;20038;-79
2023/03/25 00:56:59;;;;;;;5.63;1.20;;;11.00;99.90;;;;;;5004466;28;20055;-79
2023/03/25 00:59:26;;;;;;;4.90;1.00;;;11.00;99.90;;;;;;5012143;28;20046;-79
2023/03/25 01:01:55;;;;;;;4.95;1.38;;;11.00;99.90;;;;;;5016214;28;20050;-79
2023/03/25 01:04:22;;;;;;;5.57;1.30;;;11.00;99.90;;;;;;5009509;28;20121;-79
2023/03/25 01:06:50;;;;;;;4.32;1.00;;;10.90;99.90;;;;;;5003398;28;20073;-80
2023/03/25 01:09:18;;;;;;;5.28;1.30;;;10.90;99.90;;;;;;5009792;28;20684;-79
2023/03/25 01:11:46;;;;;;;3.72;1.00;;;10.90;99.90;;;;;;5009589;28;20489;-79
2023/03/25 01:14:17;;;;;;;8.70;1.40;;;10.90;99.90;;;;;;5009299;28;20057;-79
2023/03/25 01:16:44;;;;;;;7.95;1.58;;;10.80;99.90;;;;;;5011397;28;20302;-79
2023/03/25 01:19:12;;;;;;;4.55;1.27;;;10.80;99.90;;;;;;5005800;28;20061;-80
2023/03/25 01:21:39;;;;;;;8.73;1.70;;;10.80;99.90;;;;;;5007966;28;20497;-79
2023/03/25 01:24:09;;;;;;;8.07;1.58;;;10.80;99.90;;;;;;5012957;28;20053;-79
2023/03/25 01:26:36;;;;;;;10.95;2.05;;;10.80;99.90;;;;;;5015154;28;20041;-80
2023/03/25 01:29:03;;;;;;;4.80;1.08;;;10.80;99.90;;;;;;5003134;28;20052;-79
2023/03/25 01:31:30;;;;;;;2.90;1.38;;;10.80;99.90;;;;;;5011558;28;20056;-79
2023/03/25 01:33:57;;;;;;;10.30;1.60;;;10.80;99.90;;;;;;5013704;28;20050;-79
2023/03/25 01:36:28;;;;;;;6.65;1.52;;;10.80;99.90;;;;;;5012696;28;20046;-81
2023/03/25 01:38:57;;;;;;;5.25;1.25;;;10.90;99.90;;;;;;5003202;28;20050;-79
2023/03/25 01:41:25;;;;;;;12.13;1.45;;;10.90;99.90;;;;;;5012128;28;20058;-79
2023/03/25 01:44:13;;;;;;;6.68;1.20;;;10.90;99.90;;;;;;5005238;28;20050;-79
2023/03/25 01:46:43;;;;;;;8.23;1.80;;;10.90;99.90;;;;;;5007603;28;20045;-79
2023/03/25 01:49:17;;;;;;;8.25;1.55;;;11.00;99.90;;;;;;5013777;28;20100;-78
2023/03/25 01:51:45;;;;;;;7.53;1.30;;;11.00;99.90;;;;;;5003732;28;20038;-79
2023/03/25 01:54:16;;;;;;;10.00;1.45;;;11.00;99.90;;;;;;5000155;28;20046;-79
2023/03/25 01:56:46;;;;;;;6.53;1.20;;;11.00;99.90;;;;;;5005691;28;20046;-80
2023/03/25 01:59:17;;;;;;;10.63;1.60;;;11.00;99.90;;;;;;5025175;28;20559;-79
2023/03/25 02:01:46;;;;;;;4.35;0.70;;;10.80;99.90;;;;;;5007582;28;20533;-80
2023/03/25 02:04:26;;;;;;;9.57;0.93;;;10.40;99.90;;;;;;5005333;28;20124;-79
2023/03/25 02:06:54;;;;;;;1.15;0.70;;;10.10;99.90;;;;;;5005522;28;20046;-80
2023/03/25 02:09:24;;;;;;;2.10;0.95;;;10.00;99.90;;;;;;5014303;28;20050;-80
2023/03/25 02:11:53;;;;;;;3.50;0.43;;;9.80;99.90;;;;;;5008077;28;20057;-79
2023/03/25 02:14:25;;;;;;;3.55;0.60;;;9.70;99.90;;;;;;5011103;28;20050;-80
2023/03/25 02:16:52;;;;;;;1.65;0.70;;;9.60;99.90;;;;;;5001186;28;20057;-79
2023/03/25 02:19:43;;;;;;;1.98;0.60;;;9.60;99.90;;;;;;5024187;28;20054;-79
2023/03/25 02:22:25;;;;;;;0.85;0.40;;;9.50;99.90;;;;;;5007108;28;20429;-79
2023/03/25 02:25:20;;;;;;;0.40;0.30;;;9.50;99.90;;;;;;5021171;28;20057;-79
2023/03/25 02:28:06;;;;;;;1.15;0.50;;;9.40;99.90;;;;;;5008370;28;20049;-77
2023/03/25 02:30:37;;;;;;;0.57;0.40;;;9.30;99.90;;;;;;5013547;28;20042;-79
2023/03/25 02:33:42;;;;;;;0.70;0.40;;;9.30;99.90;;;;;;5021092;28;20490;-79
2023/03/25 02:36:40;;;;;;;1.55;0.52;;;9.30;99.90;;;;;;4922223;28;20427;-79
2023/03/25 02:39:39;;;;;;;3.03;0.52;;;9.20;99.90;;;;;;5002379;28;20050;-79
2023/03/25 02:42:22;;;;;;;4.00;0.90;;;9.20;99.90;;;;;;5005266;28;20508;-78
2023/03/25 02:45:00;;;;;;;1.33;0.52;;;9.20;99.90;;;;;;5006255;28;20061;-79
2023/03/25 02:47:38;;;;;;;2.15;0.50;;;9.30;99.90;;;;;;5008937;28;20047;-78
2023/03/25 02:50:14;;;;;;;3.55;0.60;;;9.20;99.90;;;;;;5002438;28;20509;-79
2023/03/25 02:52:47;;;;;;;1.55;0.60;;;9.20;99.90;;;;;;5003040;28;20045;-79
2023/03/25 02:55:17;;;;;;;3.60;0.60;;;9.20;99.90;;;;;;5004092;28;20050;-79
2023/03/25 02:57:47;;;;;;;1.25;0.60;;;9.20;99.90;;;;;;5009130;28;20046;-79
2023/03/25 03:00:19;;;;;;;1.35;0.50;;;9.20;99.90;;;;;;5012476;28;20054;-79
2023/03/25 03:02:52;;;;;;;1.67;0.60;;;9.10;99.90;;;;;;5003055;28;20494;-79
2023/03/25 03:05:25;;;;;;;3.53;0.68;;;9.10;99.90;;;;;;5013543;28;20441;-79
2023/03/25 03:08:18;;;;;;;2.47;0.40;;;8.90;99.90;;;;;;5010524;28;20050;-79
2023/03/25 03:11:03;;;;;;;4.28;0.63;;;8.90;99.90;;;;;;5015705;28;20078;-79
2023/03/25 03:13:53;;;;;;;2.13;0.52;;;8.90;99.90;;;;;;5018024;28;20050;-79
2023/03/25 03:16:24;;;;;;;2.70;0.82;;;8.90;99.90;;;;;;5006359;28;20046;-79
2023/03/25 03:19:16;;;;;;;0.80;0.50;;;8.80;99.90;;;;;;5007403;28;20129;-79
2023/03/25 03:21:59;;;;;;;0.98;0.45;;;8.80;99.90;;;;;;5008361;28;20046;-79
2023/03/25 03:24:32;;;;;;;1.48;0.60;;;8.80;99.90;;;;;;5010733;28;20049;-79
2023/03/25 03:27:13;;;;;;;3.08;0.52;;;8.70;99.90;;;;;;5003072;28;20125;-79
2023/03/25 03:29:54;;;;;;;1.75;0.70;;;8.70;99.90;;;;;;5011938;28;20046;-78
2023/03/25 03:32:30;;;;;;;1.30;0.52;;;8.70;99.90;;;;;;5015782;28;20046;-79
2023/03/25 03:35:12;;;;;;;1.75;0.65;;;8.60;99.90;;;;;;5021115;28;20050;-79
2023/03/25 03:37:44;;;;;;;1.92;0.60;;;8.60;99.90;;;;;;5011033;28;20054;-79
2023/03/25 03:40:18;;;;;;;2.38;0.85;;;8.60;99.90;;;;;;5013981;28;20133;-79
2023/03/25 03:43:08;;;;;;;0.57;0.40;;;8.60;99.90;;;;;;5010589;28;20125;-79
2023/03/25 03:45:41;;;;;;;0.88;0.47;;;8.50;99.90;;;;;;5018924;28;20049;-79
2023/03/25 03:48:14;;;;;;;1.10;0.47;;;8.50;99.90;;;;;;5014768;28;20076;-79
2023/03/25 03:50:49;;;;;;;0.80;0.45;;;8.40;99.90;;;;;;5008509;28;20126;-79
2023/03/25 03:53:25;;;;;;;1.13;0.45;;;8.40;99.90;;;;;;5009007;28;20046;-79
2023/03/25 03:56:02;;;;;;;1.58;0.50;;;8.30;99.90;;;;;;5012778;28;20042;-79
2023/03/25 03:58:33;;;;;;;0.85;0.50;;;8.30;99.90;;;;;;5014931;28;20068;-79
2023/03/25 04:01:12;;;;;;;2.20;0.40;;;8.30;99.90;;;;;;5005320;28;20061;-79
2023/03/25 04:03:48;;;;;;;0.68;0.40;;;8.20;99.90;;;;;;5026841;28;20053;-79
2023/03/25 04:06:25;;;;;;;1.00;0.60;;;8.20;99.90;;;;;;5007894;28;20514;-79
2023/03/25 04:09:17;;;;;;;0.63;0.50;;;8.20;99.90;;;;;;5018586;28;20051;-79
2023/03/25 04:11:51;;;;;;;0.75;0.50;;;8.10;99.90;;;;;;5017167;28;20037;-79
2023/03/25 04:14:18;;;;;;;0.88;0.52;;;8.10;99.90;;;;;;5006003;28;20133;-79
2023/03/25 04:16:45;;;;;;;0.90;0.50;;;8.20;99.90;;;;;;5008974;28;20073;-78
2023/03/25 04:19:18;;;;;;;1.15;0.50;;;8.20;99.90;;;;;;5024198;28;20061;-79
2023/03/25 04:21:46;;;;;;;1.58;0.50;;;8.30;99.90;;;;;;5017325;28;20077;-79
2023/03/25 04:24:15;;;;;;;0.45;0.40;;;8.30;99.90;;;;;;5014986;28;20061;-79
2023/03/25 04:26:42;;;;;;;1.20;0.52;;;8.30;99.90;;;;;;5016115;28;20186;-78
2023/03/25 04:29:09;;;;;;;3.45;0.82;;;8.30;99.90;;;;;;5008584;28;20054;-79
2023/03/25 04:31:36;;;;;;;2.25;0.47;;;8.40;99.90;;;;;;5011191;28;20081;-78
2023/03/25 04:34:03;;;;;;;2.05;0.75;;;8.40;99.90;;;;;;5009360;28;20046;-79
2023/03/25 04:36:36;;;;;;;1.45;0.40;;;8.40;99.90;;;;;;5013104;28;20429;-79
2023/03/25 04:39:03;;;;;;;1.65;0.40;;;8.40;99.90;;;;;;5012908;28;20046;-80
2023/03/25 04:41:32;;;;;;;2.53;0.40;;;8.50;99.90;;;;;;5010458;28;20097;-79
2023/03/25 04:43:59;;;;;;;2.03;0.50;;;8.50;99.90;;;;;;5013579;28;20054;-79
2023/03/25 04:46:26;;;;;;;0.60;0.25;;;8.50;99.90;;;;;;5010179;28;20517;-79
2023/03/25 04:48:55;;;;;;;2.20;0.30;;;8.50;99.90;;;;;;5004760;28;20053;-79
2023/03/25 04:51:22;;;;;;;2.55;0.43;;;8.60;99.90;;;;;;5011477;28;20073;-79
2023/03/25 04:53:49;;;;;;;1.95;0.40;;;8.60;99.90;;;;;;5009938;28;20061;-79
2023/03/25 04:56:17;;;;;;;1.35;0.30;;;8.70;99.90;;;;;;5012426;28;20053;-79
2023/03/25 04:58:44;;;;;;;1.48;0.65;;;8.70;99.90;;;;;;5014350;28;20092;-79
2023/03/25 05:01:29;;;;;;;0.47;0.40;;;8.70;99.90;;;;;;5011039;28;20084;-79
2023/03/25 05:04:04;;;;;;;2.22;0.50;;;8.70;99.90;;;;;;5014463;28;20049;-79
2023/03/25 05:06:39;;;;;;;1.73;0.43;;;8.80;99.90;;;;;;5013576;28;20080;-79
2023/03/25 05:09:08;;;;;;;1.42;0.60;;;8.80;99.90;;;;;;5011310;28;20061;-79
2023/03/25 05:11:38;;;;;;;2.05;0.50;;;8.90;99.90;;;;;;5005143;28;20422;-79
2023/03/25 05:14:05;;;;;;;2.35;0.43;;;9.00;99.90;;;;;;5004137;28;20049;-79
2023/03/25 05:16:32;;;;;;;2.35;0.50;;;9.00;99.90;;;;;;5010158;28;20046;-79
2023/03/25 05:18:59;;;;;;;3.30;0.60;;;9.00;99.90;;;;;;5014748;28;20045;-79
2023/03/25 05:21:26;;;;;;;2.85;0.50;;;9.10;99.90;;;;;;5005921;28;20053;-79
2023/03/25 05:23:52;;;;;;;5.25;0.70;;;9.00;99.90;;;;;;5011222;28;20054;-79
2023/03/25 05:26:19;;;;;;;1.23;0.63;;;9.10;99.90;;;;;;5004689;28;20081;-79
2023/03/25 05:28:50;;;;;;;1.92;0.95;;;9.10;99.90;;;;;;5009655;28;20058;-79
2023/03/25 05:31:17;;;;;;;1.55;0.45;;;9.10;99.90;;;;;;5012241;28;20113;-79
2023/03/25 05:33:44;;;;;;;0.77;0.60;;;9.10;99.90;;;;;;5020495;28;20509;-79
2023/03/25 05:36:15;;;;;;;1.65;0.60;;;9.00;99.90;;;;;;5002545;28;20106;-79
2023/03/25 05:38:43;;;;;;;0.85;0.50;;;9.00;99.90;;;;;;5026344;28;20050;-79
2023/03/25 05:41:17;;;;;;;1.70;0.47;;;9.00;99.90;;;;;;5009858;28;20141;-79
2023/03/25 05:43:49;;;;;;;4.03;0.50;;;9.10;99.90;;;;;;5026208;28;20136;-79
2023/03/25 05:46:17;;;;;;;3.30;1.20;;;9.00;99.90;;;;;;5010660;28;20053;-78
2023/03/25 05:48:45;;;;;;;1.80;0.70;;;9.10;99.90;;;;;;5005860;28;20460;-80
2023/03/25 05:51:17;;;;;;;2.72;0.43;;;9.10;99.90;;;;;;5004893;28;20042;-80
2023/03/25 05:53:48;;;;;;;1.27;0.63;;;9.00;99.90;;;;;;5012665;28;20072;-80
2023/03/25 05:56:18;;;;;;;2.85;0.68;;;9.00;99.90;;;;;;5010930;28;20046;-80
2023/03/25 05:58:49;;;;;;;2.97;0.70;;;9.00;99.90;;;;;;5002023;28;20049;-80
2023/03/25 06:01:18;;;;;;;3.63;0.90;;;9.00;99.90;;;;;;5015547;28;20045;-80
2023/03/25 06:04:02;;;;;;;4.72;0.90;;;9.00;99.90;;;;;;5009689;28;20057;-80
2023/03/25 06:06:30;;;;;;;3.17;0.60;;;9.00;99.90;;;;;;5009170;28;20053;-80
2023/03/25 06:08:58;;;;;;;2.42;0.60;;;9.10;99.90;;;;;;5003120;28;20054;-80
2023/03/25 06:11:24;;;;;;;5.20;0.90;;;9.10;99.90;;;;;;5010175;28;20065;-80
2023/03/25 06:13:51;;;;;;;3.03;0.85;;;9.10;99.90;;;;;;5005149;28;20124;-80
2023/03/25 06:16:21;;;;;;;2.58;0.80;;;9.10;99.90;;;;;;5021182;28;20109;-80
2023/03/25 06:18:54;;;;;;;6.43;1.10;;;9.10;99.90;;;;;;5007783;28;20069;-80
2023/03/25 06:21:22;;;;;;;3.83;0.82;;;9.10;99.90;;;;;;5006409;28;20050;-80
2023/03/25 06:23:49;;;;;;;4.38;0.90;;;9.10;99.90;;;;;;5005028;28;20057;-80
2023/03/25 06:26:17;;;;;;;4.22;1.10;;;9.20;99.90;;;;;;5013733;28;20097;-80
2023/03/25 06:28:45;;;;;;;2.13;0.80;;;9.20;99.90;;;;;;5023716;28;20057;-80
2023/03/25 06:31:21;;;;;;;3.28;0.80;;;9.20;99.90;;;;;;5023992;28;20150;-80
2023/03/25 06:33:50;;;;;;;5.28;1.00;;;9.30;99.90;;;;;;5006488;28;20580;-80
2023/03/25 06:36:18;;;;;;;4.18;1.00;;;9.30;99.90;;;;;;5009259;28;20474;-80
2023/03/25 06:38:48;;;;;;;4.03;1.70;;;9.30;99.90;;;;;;5006636;28;20054;-80
2023/03/25 06:41:19;;;;;;;3.90;0.88;;;9.30;99.90;;;;;;5008997;28;20060;-80
2023/03/25 06:43:47;;;;;;;4.13;0.80;;;9.30;99.90;;;;;;5015579;28;20061;-80
2023/03/25 06:46:14;;;;;;;4.85;1.10;;;9.30;99.90;;;;;;5008777;28;20077;-80
2023/03/25 06:48:41;;;;;;;4.78;1.05;;;9.30;99.90;;;;;;5010160;28;20034;-80
2023/03/25 06:51:08;;;;;;;3.30;0.73;;;9.30;99.90;;;;;;5012202;28;20123;-80
2023/03/25 06:53:34;;;;;;;3.90;0.90;;;9.40;99.90;;;;;;5017083;28;20525;-81
2023/03/25 06:56:01;;;;;;;5.65;1.15;;;9.40;99.90;;;;;;5010401;28;20042;-79
2023/03/25 06:58:33;;;;;;;8.00;2.08;;;9.50;99.90;;;;;;5003534;28;20054;-79
2023/03/25 07:01:02;;;;;;;4.53;1.23;;;9.60;99.90;;;;;;5005595;28;20115;-80
2023/03/25 07:03:29;;;;;;;4.88;0.93;;;9.60;99.90;;;;;;5008011;28;20056;-80
2023/03/25 07:05:56;;;;;;;4.90;0.93;;;9.60;99.90;;;;;;5007090;28;20050;-80
2023/03/25 07:08:22;;;;;;;6.30;1.27;;;9.70;99.90;;;;;;5013268;28;20046;-80
2023/03/25 07:10:49;;;;;;;3.28;1.15;;;9.70;99.90;;;;;;5005864;28;20406;-80
2023/03/25 07:13:16;;;;;;;3.95;1.08;;;9.70;99.90;;;;;;5009531;28;20049;-80
2023/03/25 07:15:42;;;;;;;5.15;1.13;;;9.80;99.90;;;;;;5013549;28;20124;-80
2023/03/25 07:18:09;;;;;;;6.07;1.20;;;9.80;99.90;;;;;;5026138;28;20057;-80
2023/03/25 07:20:36;;;;;;;4.90;1.40;;;9.80;99.90;;;;;;5005525;28;20050;-80
2023/03/25 07:23:02;;;;;;;5.72;1.30;;;9.90;99.90;;;;;;5008622;28;20046;-80
2023/03/25 07:25:29;;;;;;;6.38;1.40;;;9.90;99.90;;;;;;5025902;28;20050;-80
2023/03/25 07:27:55;;;;;;;5.95;1.13;;;9.90;99.90;;;;;;5014896;28;20046;-80
2023/03/25 07:30:22;;;;;;;7.88;1.33;;;10.00;99.90;;;;;;5011511;28;20046;-80
2023/03/25 07:32:49;;;;;;;4.30;1.10;;;10.10;99.90;;;;;;5012449;28;20046;-80
2023/03/25 07:35:16;;;;;;;5.00;1.27;;;10.10;99.90;;;;;;5005514;28;20050;-80
2023/03/25 07:37:42;;;;;;;3.40;0.90;;;10.20;99.90;;;;;;5011460;28;20586;-80
2023/03/25 07:40:10;;;;;;;8.65;1.80;;;10.20;99.90;;;;;;5013090;28;20050;-80
2023/03/25 07:42:37;;;;;;;3.80;1.45;;;10.10;99.90;;;;;;5011093;28;20073;-80
2023/03/25 07:45:04;;;;;;;3.75;1.00;;;10.20;99.90;;;;;;5003376;28;20488;-80
2023/03/25 07:47:31;;;;;;;6.93;1.00;;;10.20;99.90;;;;;;5026567;28;20148;-80
2023/03/25 07:49:58;;;;;;;4.72;1.00;;;10.20;99.90;;;;;;5008776;28;20050;-80
2023/03/25 07:52:25;;;;;;;4.05;1.10;;;10.30;99.90;;;;;;5016127;28;20054;-80
2023/03/25 07:54:51;;;;;;;7.15;1.23;;;10.30;99.90;;;;;;5012625;28;20153;-80
2023/03/25 07:57:18;;;;;;;2.75;0.82;;;10.30;99.90;;;;;;5008950;28;20515;-80
2023/03/25 07:59:45;;;;;;;4.35;0.93;;;10.30;99.90;;;;;;5007810;28;20038;-80
2023/03/25 08:02:13;;;;;;;5.75;1.00;;;10.30;99.90;;;;;;5012319;28;20058;-80
2023/03/25 08:04:40;;;;;;;2.72;0.88;;;10.20;99.90;;;;;;5015174;28;20501;-80
2023/03/25 08:07:07;;;;;;;3.97;0.70;;;10.20;99.90;;;;;;5005988;28;20050;-80
2023/03/25 08:09:34;;;;;;;2.80;0.80;;;10.10;99.90;;;;;;5004163;28;20042;-79
2023/03/25 08:12:01;;;;;;;3.13;0.70;;;10.10;99.90;;;;;;5008048;28;20108;-79
2023/03/25 08:14:27;;;;;;;6.18;0.73;;;10.10;99.90;;;;;;5010471;28;20429;-79
2023/03/25 08:16:54;;;;;;;2.78;0.77;;;10.00;99.90;;;;;;5007518;28;20053;-79
2023/03/25 08:19:21;;;;;;;1.40;0.75;;;10.00;99.90;;;;;;5010467;28;20051;-79
2023/03/25 08:21:47;;;;;;;2.13;0.70;;;9.90;99.90;;;;;;5018001;28;20476;-79
2023/03/25 08:24:14;;;;;;;2.20;0.70;;;9.80;99.90;;;;;;5025803;28;20121;-79
2023/03/25 08:26:42;;;;;;;1.02;0.50;;;9.70;99.90;;;;;;5013146;28;20050;-79
2023/03/25 08:29:10;;;;;;;2.30;0.60;;;9.70;99.90;;;;;;5015080;28;20141;-79
2023/03/25 08:31:37;;;;;;;3.67;0.68;;;9.70;99.90;;;;;;5004319;28;20558;-79
2023/03/25 08:34:05;;;;;;;2.13;0.77;;;9.60;99.90;;;;;;5019721;28;20065;-79
2023/03/25 08:36:32;;;;;;;2.80;1.05;;;9.60;99.90;;;;;;5010550;28;20403;-79
2023/03/25 08:39:00;;;;;;;4.43;0.80;;;9.50;99.90;;;;;;5008414;28;20050;-79
2023/03/25 08:41:27;;;;;;;2.08;1.00;;;9.50;99.90;;;;;;5004363;28;20054;-79
2023/03/25 08:43:53;;;;;;;1.20;0.45;;;9.60;99.90;;;;;;5011892;28;20052;-79
2023/03/25 08:46:20;;;;;;;4.90;1.20;;;9.50;99.90;;;;;;5004867;28;20133;-79
2023/03/25 08:48:48;;;;;;;4.45;0.88;;;9.50;99.90;;;;;;5006266;28;20056;-79
2023/03/25 08:51:16;;;;;;;1.15;0.52;;;9.40;99.90;;;;;;5015792;28;20046;-79
2023/03/25 08:53:42;;;;;;;1.25;0.68;;;9.30;99.90;;;;;;5011091;28;20041;-78
2023/03/25 08:56:10;;;;;;;2.55;0.85;;;9.30;99.90;;;;;;5002163;28;20050;-79
2023/03/25 08:58:36;;;;;;;1.40;0.50;;;9.30;99.90;;;;;;5012759;28;20054;-79
2023/03/25 09:01:03;;;;;;;4.00;0.82;;;9.30;99.90;;;;;;5010766;28;20050;-79
2023/03/25 09:03:30;;;;;;;1.65;0.50;;;9.30;99.90;;;;;;5009486;28;20050;-79
2023/03/25 09:05:57;;;;;;;1.25;0.60;;;9.20;99.90;;;;;;5005130;28;20052;-79
2023/03/25 09:08:23;;;;;;;1.27;0.70;;;9.20;99.90;;;;;;5013968;28;20049;-80
2023/03/25 09:10:50;;;;;;;1.90;0.60;;;9.30;99.90;;;;;;5006903;28;20177;-80
2023/03/25 09:13:17;;;;;;;1.58;0.50;;;9.30;99.90;;;;;;5010668;28;20045;-80
2023/03/25 09:15:44;;;;;;;1.90;0.70;;;9.40;99.90;;;;;;5016427;28;20045;-80
2023/03/25 09:18:11;;;;;;;5.60;1.42;;;9.40;99.90;;;;;;5006631;28;20093;-80
2023/03/25 09:20:38;;;;;;;1.80;1.17;;;9.40;99.90;;;;;;5008247;28;20081;-80
2023/03/25 09:23:08;;;;;;;2.40;0.60;;;9.40;99.90;;;;;;5012577;28;20054;-79
2023/03/25 09:25:35;;;;;;;;;;;9.30;99.90;;;;;;5016977;28;20058;-80
2023/03/25 09:28:02;;;;;;;0.98;0.40;;;9.30;99.90;;;;;;5006086;28;19989;-79
2023/03/25 09:30:29;;;;;;;1.35;0.90;;;9.30;99.90;;;;;;5041939;23;20056;-76
2023/03/25 09:32:55;;;;;;;1.90;0.98;;;9.20;99.90;;;;;;5041486;28;20052;-76
2023/03/25 09:35:22;;;;;;;2.45;1.05;;;9.10;99.90;;;;;;5043265;28;20501;-77
2023/03/25 09:37:49;;;;;;;3.45;0.40;;;9.20;99.90;;;;;;5044314;28;20531;-76
2023/03/25 09:40:20;;;;;;;3.58;0.68;;;9.20;99.90;;;;;;5044913;28;20049;-76
2023/03/25 09:43:07;;;;;;;2.78;0.93;;;9.40;99.90;;;;;;5047453;28;20067;-76
2023/03/25 09:45:35;;;;;;;1.05;0.50;;;9.40;99.90;;;;;;5042830;28;20049;-76
2023/03/25 09:48:41;;;;;;;1.38;0.73;;;9.50;99.90;;;;;;5044527;28;20045;-76
2023/03/25 09:51:23;;;;;;;2.25;0.60;;;9.60;99.90;;;;;;5042260;28;20055;-76
2023/03/25 09:53:57;;;;;;;2.40;0.75;;;9.70;99.90;;;;;;5045326;28;20049;-77
2023/03/25 09:56:29;;;;;;;1.27;0.60;;;9.80;99.90;;;;;;5042922;28;20049;-77
2023/03/25 09:59:19;;;;;;;1.75;0.73;;;9.90;99.90;;;;;;5042614;28;20056;-77
2023/03/25 10:02:01;;;;;;;2.85;1.23;;;10.00;99.90;;;;;;5042526;28;20060;-76
2023/03/25 10:04:45;;;;;;;2.78;1.38;;;10.10;99.90;;;;;;5043079;28;20405;-77
2023/03/25 10:07:27;;;;;;;2.13;1.00;;;10.10;99.90;;;;;;5041559;28;20429;-77
2023/03/25 10:10:11;;;;;;;3.45;1.30;;;10.10;99.90;;;;;;5042429;28;20049;-77
2023/03/25 10:13:06;;;;;;;0.98;0.60;;;10.20;99.90;;;;;;5042728;28;20049;-76
2023/03/25 10:15:47;;;;;;;1.90;0.90;;;10.10;99.90;;;;;;5043631;28;20052;-77
2023/03/25 10:18:44;;;;;;;0.95;0.50;;;10.10;99.90;;;;;;5043723;28;20114;-76
2023/03/25 10:21:17;;;;;;;1.38;0.40;;;10.10;99.90;;;;;;5041859;28;20057;-76
2023/03/25 10:24:11;;;;;;;0.80;0.20;;;10.10;99.90;;;;;;5039826;28;20068;-77
2023/03/25 10:27:10;;;;;;;0.82;0.40;;;10.00;99.90;;;;;;5041211;28;20056;-77
2023/03/25 10:29:49;;;;;;;0.95;0.40;;;10.00;99.90;;;;;;5043049;28;20053;-76
2023/03/25 10:32:19;;;;;;;0.68;0.68;;;10.10;99.90;;;;;;5042480;28;20048;-76
2023/03/25 10:34:53;;;;;;;1.58;0.40;;;10.10;99.90;;;;;;5041142;28;20456;-77
2023/03/25 10:37:29;;;;;;;1.40;0.63;;;10.20;99.90;;;;;;5039933;28;20045;-76
2023/03/25 10:40:15;;;;;;;1.00;0.55;;;10.20;99.90;;;;;;5040749;28;20056;-76
2023/03/25 10:42:56;;;;;;;2.15;0.77;;;10.40;99.90;;;;;;5040310;28;20072;-77
2023/03/25 10:45:25;;;;;;;4.93;1.05;;;10.60;99.90;;;;;;5041138;28;20052;-76
2023/03/25 10:47:57;;;;;;;1.00;0.50;;;10.80;99.90;;;;;;5042497;28;20059;-76
2023/03/25 10:50:24;;;;;;;0.65;0.50;;;10.90;99.90;;;;;;5043333;28;20492;-76
2023/03/25 10:52:51;;;;;;;2.83;0.50;;;11.10;99.90;;;;;;5046387;28;20075;-76
2023/03/25 10:55:27;;;;;;;2.60;1.25;;;11.30;99.90;;;;;;5042033;28;20049;-77
2023/03/25 10:57:55;;;;;;;2.30;0.50;;;11.40;99.90;;;;;;5042040;28;20124;-76
2023/03/25 11:00:25;;;;;;;1.67;0.60;;;11.50;99.90;;;;;;5046489;28;20764;-77
2023/03/25 11:02:53;;;;;;;1.27;0.55;;;11.50;99.90;;;;;;5047685;28;20059;-76
2023/03/25 11:05:24;;;;;;;1.17;0.50;;;11.50;99.90;;;;;;5037452;28;20491;-76
2023/03/25 11:08:00;;;;;;;2.50;0.60;;;11.50;99.90;;;;;;5046259;28;20519;-76
2023/03/25 11:10:45;;;;;;;3.83;0.70;;;11.50;99.90;;;;;;5043489;28;20424;-77
2023/03/25 11:13:15;;;;;;;1.88;0.63;;;11.50;99.90;;;;;;5041368;28;20045;-77
2023/03/25 11:15:42;;;;;;;8.50;0.93;;;11.50;99.90;;;;;;5040906;28;20052;-76
2023/03/25 11:18:21;;;;;;;4.95;0.90;;;11.60;99.90;;;;;;5042603;28;20049;-76
2023/03/25 11:20:59;;;;;;;3.65;0.80;;;11.50;99.90;;;;;;5042709;28;20132;-76
2023/03/25 11:23:33;;;;;;;3.55;1.08;;;11.50;99.90;;;;;;5042905;28;20113;-76
2023/03/25 11:26:22;;;;;;;5.75;1.20;;;11.50;99.90;;;;;;5042152;28;20049;-77
2023/03/25 11:28:59;;;;;;;3.85;0.77;;;11.50;99.90;;;;;;5042934;28;20041;-77
2023/03/25 11:31:31;;;;;;;5.93;0.93;;;11.50;99.90;;;;;;5040626;28;20041;-77
2023/03/25 11:34:10;;;;;;;3.60;1.13;;;11.60;99.90;;;;;;5040556;28;20045;-77
2023/03/25 11:36:47;;;;;;;3.17;1.35;;;11.60;99.90;;;;;;5040616;28;20064;-76
2023/03/25 11:39:25;;;;;;;6.63;1.40;;;11.70;99.90;;;;;;5038540;28;20100;-77
2023/03/25 11:41:52;;;;;;;6.00;1.30;;;11.60;99.90;;;;;;5039584;28;20426;-77
2023/03/25 11:44:26;;;;;;;2.97;0.90;;;11.70;99.90;;;;;;5042411;28;20444;-76
2023/03/25 11:47:05;;;;;;;2.88;0.80;;;11.80;99.90;;;;;;5042654;28;20402;-77
2023/03/25 11:49:37;;;;;;;4.80;1.10;;;11.90;99.90;;;;;;5056984;28;20060;-76
2023/03/25 11:52:16;;;;;;;2.00;0.82;;;11.90;99.90;;;;;;5038926;28;20048;-76
2023/03/25 11:54:44;;;;;;;14.32;2.78;;;11.90;99.90;;;;;;5043423;28;20042;-76
2023/03/25 11:57:25;;;;;;;3.40;1.10;;;11.90;99.90;;;;;;5045302;28;20045;-76
2023/03/25 12:00:11;;;;;;;4.78;1.10;;;11.80;99.90;;;;;;5044646;28;20088;-77
2023/03/25 12:02:39;;;;;;;7.03;1.58;;;11.90;99.90;;;;;;5045181;28;20057;-76
2023/03/25 12:05:12;;;;;;;6.57;1.67;;;11.90;99.90;;;;;;5042383;28;20080;-77
2023/03/25 12:07:46;;;;;;;5.22;1.27;;;11.90;99.90;;;;;;5044223;28;20429;-77
2023/03/25 12:10:31;;;;;;;4.97;1.13;;;11.90;99.90;;;;;;5048832;28;20045;-77
2023/03/25 12:13:16;;;;;;;2.88;0.80;;;11.80;99.90;;;;;;5044435;28;20046;-77
2023/03/25 12:15:52;;;;;;;2.60;0.90;;;11.80;99.90;;;;;;5045020;28;20440;-76
2023/03/25 12:18:40;;;;;;;4.57;1.05;;;11.80;99.90;;;;;;5044830;28;20049;-77
2023/03/25 12:21:26;;;;;;;3.25;1.00;;;11.80;99.90;;;;;;5043875;28;20115;-77
2023/03/25 12:24:06;;;;;;;4.18;1.17;;;11.90;99.90;;;;;;5060251;28;20485;-77
2023/03/25 12:27:11;;;;;;;5.85;1.60;;;11.90;99.90;;;;;;5043659;28;20503;-76
2023/03/25 12:29:55;;;;;;;2.67;0.95;;;12.00;99.90;;;;;;5043482;28;20136;-77
2023/03/25 12:32:53;;;;;;;3.05;1.25;;;12.10;99.90;;;;;;5042759;28;20045;-77
2023/03/25 12:35:23;;;;;;;3.15;1.33;;;12.10;99.90;;;;;;5046625;28;20132;-77
2023/03/25 12:38:45;;;;;;;3.53;1.00;;;12.20;99.90;;;;;;5045300;28;20045;-76
2023/03/25 12:41:35;;;;;;;3.80;0.95;;;12.20;99.90;;;;;;5040176;28;20151;-77
2023/03/25 12:44:27;;;;;;;2.40;1.10;;;12.20;99.90;;;;;;5045170;28;20056;-77
2023/03/25 12:47:00;;;;;;;4.45;0.90;;;12.20;99.90;;;;;;5039432;28;20072;-77
2023/03/25 12:49:48;;;;;;;2.90;1.33;;;12.20;99.90;;;;;;5042708;28;20075;-77
2023/03/25 12:52:22;;;;;;;3.90;1.33;;;12.20;99.90;;;;;;5041981;28;20417;-77
2023/03/25 12:55:01;;;;;;;2.83;1.00;;;12.30;99.90;;;;;;5042873;28;20501;-77
2023/03/25 12:57:46;;;;;;;5.20;1.02;;;12.40;99.90;;;;;;5043266;28;20050;-77
2023/03/25 13:00:16;;;;;;;2.75;0.90;;;12.50;99.90;;;;;;5044158;28;20056;-77
2023/03/25 13:03:22;;;;;;;3.17;1.10;;;12.50;99.90;;;;;;5044711;28;20083;-76
2023/03/25 13:06:15;;;;;;;3.30;0.73;;;12.50;99.90;;;;;;5042728;28;20061;-77
2023/03/25 13:08:49;;;;;;;2.47;0.70;;;12.60;99.90;;;;;;5042949;28;20099;-77
2023/03/25 13:11:58;;;;;;;1.50;0.70;;;12.60;99.90;;;;;;5042805;28;20129;-77
2023/03/25 13:14:34;;;;;;;1.67;0.85;;;12.60;99.90;;;;;;5002870;28;20501;-76
2023/03/25 13:17:08;;;;;;;2.63;1.08;;;12.70;99.90;;;;;;5041569;28;20049;-77
2023/03/25 13:19:39;;;;;;;3.83;1.40;;;12.70;99.90;;;;;;5042779;28;20055;-77
2023/03/25 13:22:16;;;;;;;3.08;0.88;;;12.70;99.90;;;;;;5041817;28;20064;-76
2023/03/25 13:24:50;;;;;;;3.58;0.70;;;12.40;99.90;;;;;;5042610;28;20049;-76